sensor_id;sensor_type;location;lat;lon;timestamp;pressure;altitude;pressure_sealevel;temperature;humidity
64841;BME280;51307;52.162;7.560;2023-02-28T00:00:32;102608.50;;;1.36;52.37
64841;BME280;51307;52.162;7.560;2023-02-28T00:02:59;102607.84;;;1.55;51.99
64841;BME280;51307;52.162;7.560;2023-02-28T00:05:26;102610.94;;;1.43;51.95
64841;BME280;51307;52.162;7.560;2023-02-28T00:07:52;102603.06;;;1.65;51.77
64841;BME280;51307;52.162;7.560;2023-02-28T00:10:20;102600.97;;;1.51;51.68
64841;BME280;51307;52.162;7.560;2023-02-28T00:12:47;102609.78;;;1.26;52.38
64841;BME280;51307;52.162;7.560;2023-02-28T00:15:13;102611.59;;;1.24;52.54
64841;BME280;51307;52.162;7.560;2023-02-28T00:17:39;102617.06;;;1.43;51.85
64841;BME280;51307;52.162;7.560;2023-02-28T00:20:06;102611.72;;;1.45;51.86
64841;BME280;51307;52.162;7.560;2023-02-28T00:22:36;102612.75;;;1.41;51.99
64841;BME280;51307;52.162;7.560;2023-02-28T00:25:03;102615.63;;;1.34;52.41
64841;BME280;51307;52.162;7.560;2023-02-28T00:27:29;102613.78;;;1.36;52.53
64841;BME280;51307;52.162;7.560;2023-02-28T00:29:55;102611.06;;;1.40;52.53
64841;BME280;51307;52.162;7.560;2023-02-28T00:32:20;102604.00;;;1.40;52.91
64841;BME280;51307;52.162;7.560;2023-02-28T00:34:46;102610.25;;;1.38;52.57
64841;BME280;51307;52.162;7.560;2023-02-28T00:37:12;102609.09;;;1.45;52.58
64841;BME280;51307;52.162;7.560;2023-02-28T00:39:38;102611.16;;;1.36;52.68
64841;BME280;51307;52.162;7.560;2023-02-28T00:42:05;102609.47;;;1.35;53.46
64841;BME280;51307;52.162;7.560;2023-02-28T00:44:31;102603.94;;;1.42;53.16
64841;BME280;51307;52.162;7.560;2023-02-28T00:46:57;102606.56;;;1.42;53.40
64841;BME280;51307;52.162;7.560;2023-02-28T00:49:23;102600.59;;;1.36;53.46
64841;BME280;51307;52.162;7.560;2023-02-28T00:51:49;102604.19;;;1.35;53.55
64841;BME280;51307;52.162;7.560;2023-02-28T00:54:15;102595.25;;;1.38;53.66
64841;BME280;51307;52.162;7.560;2023-02-28T00:56:41;102598.09;;;1.33;53.48
64841;BME280;51307;52.162;7.560;2023-02-28T00:59:06;102593.91;;;1.28;53.65
64841;BME280;51307;52.162;7.560;2023-02-28T01:01:32;102604.19;;;1.35;53.47
64841;BME280;51307;52.162;7.560;2023-02-28T01:03:57;102597.25;;;1.33;53.52
64841;BME280;51307;52.162;7.560;2023-02-28T01:06:23;102594.69;;;1.30;53.73
64841;BME280;51307;52.162;7.560;2023-02-28T01:08:49;102597.44;;;1.27;53.71
64841;BME280;51307;52.162;7.560;2023-02-28T01:11:16;102585.94;;;1.29;53.46
64841;BME280;51307;52.162;7.560;2023-02-28T01:13:45;102592.16;;;1.27;53.59
64841;BME280;51307;52.162;7.560;2023-02-28T01:16:10;102591.19;;;1.29;53.50
64841;BME280;51307;52.162;7.560;2023-02-28T01:18:37;102594.75;;;1.28;53.30
64841;BME280;51307;52.162;7.560;2023-02-28T01:21:04;102596.22;;;1.37;53.21
64841;BME280;51307;52.162;7.560;2023-02-28T01:23:30;102596.09;;;1.40;53.58
64841;BME280;51307;52.162;7.560;2023-02-28T01:25:56;102600.03;;;1.28;53.39
64841;BME280;51307;52.162;7.560;2023-02-28T01:28:21;102603.03;;;1.43;53.43
64841;BME280;51307;52.162;7.560;2023-02-28T01:30:48;102599.56;;;1.41;53.15
64841;BME280;51307;52.162;7.560;2023-02-28T01:33:14;102596.84;;;1.44;52.93
64841;BME280;51307;52.162;7.560;2023-02-28T01:35:39;102593.66;;;1.34;53.09
64841;BME280;51307;52.162;7.560;2023-02-28T01:38:04;102594.19;;;1.44;53.27
64841;BME280;51307;52.162;7.560;2023-02-28T01:40:30;102592.03;;;1.31;53.20
64841;BME280;51307;52.162;7.560;2023-02-28T01:42:56;102589.25;;;1.34;53.54
64841;BME280;51307;52.162;7.560;2023-02-28T01:45:31;102591.38;;;1.25;53.57
64841;BME280;51307;52.162;7.560;2023-02-28T01:48:07;102588.38;;;1.34;53.45
64841;BME280;51307;52.162;7.560;2023-02-28T01:50:41;102584.44;;;1.22;53.97
64841;BME280;51307;52.162;7.560;2023-02-28T01:53:13;102589.72;;;1.22;53.57
64841;BME280;51307;52.162;7.560;2023-02-28T01:55:47;102588.63;;;1.28;53.51
64841;BME280;51307;52.162;7.560;2023-02-28T01:58:14;102593.59;;;1.12;53.58
64841;BME280;51307;52.162;7.560;2023-02-28T02:00:40;102585.88;;;1.06;53.60
64841;BME280;51307;52.162;7.560;2023-02-28T02:03:14;102585.03;;;1.05;53.83
64841;BME280;51307;52.162;7.560;2023-02-28T02:05:41;102586.38;;;1.17;53.58
64841;BME280;51307;52.162;7.560;2023-02-28T02:08:20;102588.91;;;1.20;53.23
64841;BME280;51307;52.162;7.560;2023-02-28T02:10:51;102586.50;;;1.14;53.75
64841;BME280;51307;52.162;7.560;2023-02-28T02:13:44;102577.66;;;1.15;53.61
64841;BME280;51307;52.162;7.560;2023-02-28T02:22:39;102574.63;;;1.26;53.84
64841;BME280;51307;52.162;7.560;2023-02-28T02:38:53;102565.81;;;1.27;54.18
64841;BME280;51307;52.162;7.560;2023-02-28T02:46:32;102575.72;;;1.20;55.24
64841;BME280;51307;52.162;7.560;2023-02-28T02:49:04;102591.06;;;1.09;55.57
64841;BME280;51307;52.162;7.560;2023-02-28T02:51:33;102578.63;;;1.12;55.62
64841;BME280;51307;52.162;7.560;2023-02-28T02:56:34;102584.31;;;1.00;55.73
64841;BME280;51307;52.162;7.560;2023-02-28T02:59:04;102581.63;;;1.01;55.70
64841;BME280;51307;52.162;7.560;2023-02-28T03:01:34;102573.72;;;1.01;55.50
64841;BME280;51307;52.162;7.560;2023-02-28T03:04:06;102590.69;;;0.94;55.62
64841;BME280;51307;52.162;7.560;2023-02-28T03:06:32;102570.69;;;0.89;55.84
64841;BME280;51307;52.162;7.560;2023-02-28T03:09:00;102582.06;;;0.89;55.70
64841;BME280;51307;52.162;7.560;2023-02-28T03:11:26;102584.38;;;0.73;55.93
64841;BME280;51307;52.162;7.560;2023-02-28T03:16:36;102578.13;;;0.76;55.81
64841;BME280;51307;52.162;7.560;2023-02-28T03:21:43;102580.34;;;0.63;55.82
64841;BME280;51307;52.162;7.560;2023-02-28T03:24:19;102579.38;;;0.65;55.98
64841;BME280;51307;52.162;7.560;2023-02-28T03:26:58;102578.50;;;0.65;55.69
64841;BME280;51307;52.162;7.560;2023-02-28T03:29:41;102579.38;;;0.65;55.74
64841;BME280;51307;52.162;7.560;2023-02-28T03:32:27;102588.06;;;0.67;55.50
64841;BME280;51307;52.162;7.560;2023-02-28T03:35:04;102584.66;;;0.65;55.19
64841;BME280;51307;52.162;7.560;2023-02-28T03:37:37;102590.03;;;0.34;56.42
64841;BME280;51307;52.162;7.560;2023-02-28T03:40:08;102585.38;;;0.42;56.50
64841;BME280;51307;52.162;7.560;2023-02-28T03:42:41;102584.84;;;0.59;56.37
64841;BME280;51307;52.162;7.560;2023-02-28T03:45:16;102588.66;;;0.76;56.27
64841;BME280;51307;52.162;7.560;2023-02-28T03:48:07;102580.28;;;0.64;56.31
64841;BME280;51307;52.162;7.560;2023-02-28T03:50:47;102583.94;;;0.60;56.52
64841;BME280;51307;52.162;7.560;2023-02-28T03:53:21;102590.91;;;0.61;56.50
64841;BME280;51307;52.162;7.560;2023-02-28T03:56:05;102589.34;;;0.56;56.40
64841;BME280;51307;52.162;7.560;2023-02-28T04:01:33;102590.75;;;0.39;56.56
64841;BME280;51307;52.162;7.560;2023-02-28T04:04:00;102587.06;;;0.45;56.38
64841;BME280;51307;52.162;7.560;2023-02-28T04:06:26;102587.47;;;0.32;56.67
64841;BME280;51307;52.162;7.560;2023-02-28T04:08:52;102581.78;;;0.45;56.60
64841;BME280;51307;52.162;7.560;2023-02-28T04:11:23;102588.56;;;0.79;55.64
64841;BME280;51307;52.162;7.560;2023-02-28T04:13:52;102583.94;;;0.33;56.61
64841;BME280;51307;52.162;7.560;2023-02-28T04:16:18;102586.50;;;0.35;56.49
64841;BME280;51307;52.162;7.560;2023-02-28T04:18:43;102590.09;;;0.32;56.33
64841;BME280;51307;52.162;7.560;2023-02-28T04:21:11;102592.81;;;0.58;55.93
64841;BME280;51307;52.162;7.560;2023-02-28T04:23:36;102596.22;;;0.33;56.61
64841;BME280;51307;52.162;7.560;2023-02-28T04:26:02;102593.75;;;0.28;56.52
64841;BME280;51307;52.162;7.560;2023-02-28T04:28:29;102592.91;;;0.28;56.41
64841;BME280;51307;52.162;7.560;2023-02-28T04:31:00;102592.03;;;0.27;56.50
64841;BME280;51307;52.162;7.560;2023-02-28T04:33:27;102596.50;;;0.25;56.49
64841;BME280;51307;52.162;7.560;2023-02-28T04:36:00;102589.59;;;0.21;56.60
64841;BME280;51307;52.162;7.560;2023-02-28T04:38:26;102596.63;;;0.21;56.40
64841;BME280;51307;52.162;7.560;2023-02-28T04:40:51;102588.06;;;0.14;56.47
64841;BME280;51307;52.162;7.560;2023-02-28T04:43:17;102595.81;;;0.18;56.25
64841;BME280;51307;52.162;7.560;2023-02-28T04:45:42;102594.31;;;0.10;56.10
64841;BME280;51307;52.162;7.560;2023-02-28T04:48:08;102591.91;;;0.04;56.26
64841;BME280;51307;52.162;7.560;2023-02-28T04:50:33;102597.63;;;0.16;56.25
64841;BME280;51307;52.162;7.560;2023-02-28T04:52:59;102594.66;;;0.27;55.85
64841;BME280;51307;52.162;7.560;2023-02-28T04:55:24;102605.91;;;0.04;56.52
64841;BME280;51307;52.162;7.560;2023-02-28T04:57:49;102602.44;;;0.04;56.69
64841;BME280;51307;52.162;7.560;2023-02-28T05:00:15;102601.59;;;0.01;56.49
64841;BME280;51307;52.162;7.560;2023-02-28T05:02:42;102597.50;;;-0.09;56.74
64841;BME280;51307;52.162;7.560;2023-02-28T05:05:08;102600.41;;;-0.17;56.81
64841;BME280;51307;52.162;7.560;2023-02-28T05:07:33;102602.25;;;-0.20;56.92
64841;BME280;51307;52.162;7.560;2023-02-28T05:09:59;102601.09;;;-0.11;56.72
64841;BME280;51307;52.162;7.560;2023-02-28T05:12:24;102605.38;;;-0.07;56.75
64841;BME280;51307;52.162;7.560;2023-02-28T05:14:50;102602.09;;;-0.16;56.56
64841;BME280;51307;52.162;7.560;2023-02-28T05:17:15;102599.72;;;-0.23;56.57
64841;BME280;51307;52.162;7.560;2023-02-28T05:19:41;102607.28;;;-0.12;56.36
64841;BME280;51307;52.162;7.560;2023-02-28T05:22:13;102612.78;;;-0.20;56.43
64841;BME280;51307;52.162;7.560;2023-02-28T05:24:40;102610.81;;;-0.13;56.31
64841;BME280;51307;52.162;7.560;2023-02-28T05:27:08;102613.31;;;-0.39;56.69
64841;BME280;51307;52.162;7.560;2023-02-28T05:29:33;102615.69;;;-0.29;56.34
64841;BME280;51307;52.162;7.560;2023-02-28T05:31:59;102622.25;;;-0.44;56.42
64841;BME280;51307;52.162;7.560;2023-02-28T05:34:25;102619.91;;;-0.55;56.47
64841;BME280;51307;52.162;7.560;2023-02-28T05:36:50;102620.66;;;-0.50;56.34
64841;BME280;51307;52.162;7.560;2023-02-28T05:39:16;102626.81;;;-0.51;56.55
64841;BME280;51307;52.162;7.560;2023-02-28T05:41:42;102623.09;;;-0.44;56.31
64841;BME280;51307;52.162;7.560;2023-02-28T05:44:08;102625.13;;;-0.54;56.59
64841;BME280;51307;52.162;7.560;2023-02-28T05:46:34;102621.16;;;-0.37;56.47
64841;BME280;51307;52.162;7.560;2023-02-28T05:48:59;102632.22;;;-0.56;56.83
64841;BME280;51307;52.162;7.560;2023-02-28T05:51:26;102633.81;;;-0.50;56.79
64841;BME280;51307;52.162;7.560;2023-02-28T05:53:51;102642.69;;;-0.54;57.05
64841;BME280;51307;52.162;7.560;2023-02-28T05:56:17;102636.22;;;-0.42;56.87
64841;BME280;51307;52.162;7.560;2023-02-28T05:58:42;102646.75;;;-0.42;56.93
64841;BME280;51307;52.162;7.560;2023-02-28T06:03:48;102640.34;;;-0.34;56.90
64841;BME280;51307;52.162;7.560;2023-02-28T06:06:14;102634.44;;;-0.42;57.41
64841;BME280;51307;52.162;7.560;2023-02-28T06:08:39;102629.09;;;-0.39;57.36
64841;BME280;51307;52.162;7.560;2023-02-28T06:11:05;102637.72;;;-0.34;57.24
64841;BME280;51307;52.162;7.560;2023-02-28T06:13:32;102637.44;;;-0.24;56.72
64841;BME280;51307;52.162;7.560;2023-02-28T06:16:01;102640.31;;;-0.32;56.91
64841;BME280;51307;52.162;7.560;2023-02-28T06:18:28;102641.19;;;-0.31;56.76
64841;BME280;51307;52.162;7.560;2023-02-28T06:20:54;102636.22;;;-0.42;56.88
64841;BME280;51307;52.162;7.560;2023-02-28T06:23:20;102638.06;;;-0.46;56.82
64841;BME280;51307;52.162;7.560;2023-02-28T06:25:46;102637.13;;;-0.43;56.63
64841;BME280;51307;52.162;7.560;2023-02-28T06:28:12;102632.06;;;-0.51;56.66
64841;BME280;51307;52.162;7.560;2023-02-28T06:30:38;102638.28;;;-0.54;56.75
64841;BME280;51307;52.162;7.560;2023-02-28T06:33:04;102638.53;;;-0.63;56.92
64841;BME280;51307;52.162;7.560;2023-02-28T06:35:30;102640.25;;;-0.62;56.93
64841;BME280;51307;52.162;7.560;2023-02-28T06:37:56;102640.97;;;-0.55;56.69
64841;BME280;51307;52.162;7.560;2023-02-28T06:40:21;102632.50;;;-0.35;56.23
64841;BME280;51307;52.162;7.560;2023-02-28T06:42:47;102633.66;;;-0.45;56.82
64841;BME280;51307;52.162;7.560;2023-02-28T06:45:12;102637.28;;;-0.50;56.89
64841;BME280;51307;52.162;7.560;2023-02-28T06:47:40;102647.00;;;-0.52;56.93
64841;BME280;51307;52.162;7.560;2023-02-28T06:50:07;102651.53;;;-0.57;57.04
64841;BME280;51307;52.162;7.560;2023-02-28T06:52:33;102648.41;;;-0.40;57.00
64841;BME280;51307;52.162;7.560;2023-02-28T06:55:01;102657.47;;;-0.50;57.07
64841;BME280;51307;52.162;7.560;2023-02-28T06:57:30;102652.13;;;-0.47;56.97
64841;BME280;51307;52.162;7.560;2023-02-28T07:00:01;102654.97;;;-0.23;56.41
64841;BME280;51307;52.162;7.560;2023-02-28T07:02:27;102661.66;;;-0.13;56.03
64841;BME280;51307;52.162;7.560;2023-02-28T07:04:53;102657.75;;;-0.29;56.06
64841;BME280;51307;52.162;7.560;2023-02-28T07:07:18;102667.72;;;-0.09;55.55
64841;BME280;51307;52.162;7.560;2023-02-28T07:09:44;102664.31;;;-0.13;55.71
64841;BME280;51307;52.162;7.560;2023-02-28T07:12:09;102671.75;;;-0.27;56.15
64841;BME280;51307;52.162;7.560;2023-02-28T07:14:36;102665.94;;;-0.09;55.92
64841;BME280;51307;52.162;7.560;2023-02-28T07:17:02;102662.50;;;-0.11;55.96
64841;BME280;51307;52.162;7.560;2023-02-28T07:19:27;102664.75;;;0.01;55.70
64841;BME280;51307;52.162;7.560;2023-02-28T07:21:53;102656.91;;;-0.00;55.20
64841;BME280;51307;52.162;7.560;2023-02-28T07:24:18;102658.69;;;-0.01;55.28
64841;BME280;51307;52.162;7.560;2023-02-28T07:26:44;102659.34;;;0.08;55.25
64841;BME280;51307;52.162;7.560;2023-02-28T07:29:09;102667.69;;;0.21;54.99
64841;BME280;51307;52.162;7.560;2023-02-28T07:31:35;102665.97;;;0.20;54.66
64841;BME280;51307;52.162;7.560;2023-02-28T07:34:00;102663.00;;;0.30;54.30
64841;BME280;51307;52.162;7.560;2023-02-28T07:36:27;102669.22;;;0.29;54.65
64841;BME280;51307;52.162;7.560;2023-02-28T07:38:53;102668.94;;;0.39;55.08
64841;BME280;51307;52.162;7.560;2023-02-28T07:41:20;102671.91;;;0.55;54.32
64841;BME280;51307;52.162;7.560;2023-02-28T07:43:47;102668.06;;;0.65;53.71
64841;BME280;51307;52.162;7.560;2023-02-28T07:46:15;102676.69;;;0.70;53.54
64841;BME280;51307;52.162;7.560;2023-02-28T07:48:42;102676.34;;;0.81;53.10
64841;BME280;51307;52.162;7.560;2023-02-28T07:51:07;102677.19;;;1.08;52.54
64841;BME280;51307;52.162;7.560;2023-02-28T07:53:33;102674.34;;;1.14;52.48
64841;BME280;51307;52.162;7.560;2023-02-28T07:56:01;102671.06;;;1.08;52.46
64841;BME280;51307;52.162;7.560;2023-02-28T07:58:29;102670.44;;;1.26;51.94
64841;BME280;51307;52.162;7.560;2023-02-28T08:00:55;102671.41;;;1.49;51.17
64841;BME280;51307;52.162;7.560;2023-02-28T08:03:22;102674.25;;;1.43;51.03
64841;BME280;51307;52.162;7.560;2023-02-28T08:05:48;102680.09;;;1.51;50.77
64841;BME280;51307;52.162;7.560;2023-02-28T08:08:15;102671.41;;;1.73;50.17
64841;BME280;51307;52.162;7.560;2023-02-28T08:10:42;102673.84;;;1.79;50.08
64841;BME280;51307;52.162;7.560;2023-02-28T08:13:07;102671.78;;;1.87;49.51
64841;BME280;51307;52.162;7.560;2023-02-28T08:15:33;102675.50;;;1.81;48.83
64841;BME280;51307;52.162;7.560;2023-02-28T08:17:59;102673.31;;;2.16;47.99
64841;BME280;51307;52.162;7.560;2023-02-28T08:20:25;102678.53;;;1.94;48.10
64841;BME280;51307;52.162;7.560;2023-02-28T08:22:51;102672.50;;;2.14;47.31
64841;BME280;51307;52.162;7.560;2023-02-28T08:25:17;102672.13;;;2.24;46.87
64841;BME280;51307;52.162;7.560;2023-02-28T08:27:43;102679.56;;;2.14;46.40
64841;BME280;51307;52.162;7.560;2023-02-28T08:30:13;102686.78;;;2.32;45.57
64841;BME280;51307;52.162;7.560;2023-02-28T08:32:39;102683.94;;;2.15;45.36
64841;BME280;51307;52.162;7.560;2023-02-28T08:35:06;102684.63;;;2.42;44.38
64841;BME280;51307;52.162;7.560;2023-02-28T08:37:31;102686.91;;;2.51;44.02
64841;BME280;51307;52.162;7.560;2023-02-28T08:39:57;102680.91;;;2.24;43.83
64841;BME280;51307;52.162;7.560;2023-02-28T08:42:23;102685.59;;;2.40;44.13
64841;BME280;51307;52.162;7.560;2023-02-28T08:44:49;102688.22;;;2.63;42.68
64841;BME280;51307;52.162;7.560;2023-02-28T08:47:15;102675.16;;;2.36;43.38
64841;BME280;51307;52.162;7.560;2023-02-28T08:49:40;102681.00;;;2.67;42.40
64841;BME280;51307;52.162;7.560;2023-02-28T08:52:06;102684.28;;;2.51;41.98
64841;BME280;51307;52.162;7.560;2023-02-28T08:54:32;102686.88;;;2.74;40.33
64841;BME280;51307;52.162;7.560;2023-02-28T08:56:58;102680.44;;;2.81;39.52
64841;BME280;51307;52.162;7.560;2023-02-28T08:59:24;102683.50;;;2.92;37.80
64841;BME280;51307;52.162;7.560;2023-02-28T09:01:49;102679.66;;;2.99;37.86
64841;BME280;51307;52.162;7.560;2023-02-28T09:04:18;102685.63;;;3.04;37.54
64841;BME280;51307;52.162;7.560;2023-02-28T09:06:43;102677.53;;;3.08;37.94
64841;BME280;51307;52.162;7.560;2023-02-28T09:09:09;102674.59;;;3.15;37.75
64841;BME280;51307;52.162;7.560;2023-02-28T09:11:35;102683.19;;;3.20;37.94
64841;BME280;51307;52.162;7.560;2023-02-28T09:14:02;102678.50;;;3.27;37.90
64841;BME280;51307;52.162;7.560;2023-02-28T09:16:29;102679.34;;;3.28;38.00
64841;BME280;51307;52.162;7.560;2023-02-28T09:18:56;102682.66;;;3.33;38.07
64841;BME280;51307;52.162;7.560;2023-02-28T09:21:21;102674.25;;;3.44;38.10
64841;BME280;51307;52.162;7.560;2023-02-28T09:23:49;102679.53;;;3.44;37.16
64841;BME280;51307;52.162;7.560;2023-02-28T09:26:23;102683.25;;;3.40;37.26
64841;BME280;51307;52.162;7.560;2023-02-28T09:28:50;102673.25;;;3.46;36.95
64841;BME280;51307;52.162;7.560;2023-02-28T09:31:21;102669.28;;;3.57;36.46
64841;BME280;51307;52.162;7.560;2023-02-28T09:33:48;102674.97;;;3.47;36.52
64841;BME280;51307;52.162;7.560;2023-02-28T09:36:14;102675.41;;;3.57;36.29
64841;BME280;51307;52.162;7.560;2023-02-28T09:38:39;102668.28;;;3.59;37.12
64841;BME280;51307;52.162;7.560;2023-02-28T09:41:25;102673.59;;;3.59;36.38
64841;BME280;51307;52.162;7.560;2023-02-28T09:43:59;102666.91;;;3.69;34.86
64841;BME280;51307;52.162;7.560;2023-02-28T09:48:54;102673.09;;;3.70;34.83
64841;BME280;51307;52.162;7.560;2023-02-28T09:54:04;102674.25;;;3.64;34.20
64841;BME280;51307;52.162;7.560;2023-02-28T09:56:36;102665.44;;;3.83;34.52
64841;BME280;51307;52.162;7.560;2023-02-28T10:04:56;102679.06;;;3.94;34.33
64841;BME280;51307;52.162;7.560;2023-02-28T10:12:57;102675.34;;;3.98;33.66
64841;BME280;51307;52.162;7.560;2023-02-28T10:15:27;102670.75;;;4.02;33.91
64841;BME280;51307;52.162;7.560;2023-02-28T10:18:00;102667.31;;;4.19;36.53
64841;BME280;51307;52.162;7.560;2023-02-28T10:20:28;102663.38;;;4.09;34.42
64841;BME280;51307;52.162;7.560;2023-02-28T10:25:36;102676.00;;;4.03;34.18
64841;BME280;51307;52.162;7.560;2023-02-28T10:28:14;102668.81;;;4.25;34.40
64841;BME280;51307;52.162;7.560;2023-02-28T10:30:50;102661.66;;;4.27;33.54
64841;BME280;51307;52.162;7.560;2023-02-28T10:35:48;102664.06;;;4.31;33.11
64841;BME280;51307;52.162;7.560;2023-02-28T10:38:18;102664.16;;;4.30;33.48
64841;BME280;51307;52.162;7.560;2023-02-28T10:40:44;102668.53;;;4.31;34.93
64841;BME280;51307;52.162;7.560;2023-02-28T10:45:38;102664.88;;;4.33;33.59
64841;BME280;51307;52.162;7.560;2023-02-28T10:48:26;102667.88;;;4.26;34.03
64841;BME280;51307;52.162;7.560;2023-02-28T10:50:54;102667.44;;;4.35;34.94
64841;BME280;51307;52.162;7.560;2023-02-28T11:01:23;102663.44;;;4.45;34.04
64841;BME280;51307;52.162;7.560;2023-02-28T11:03:51;102662.44;;;4.48;33.41
64841;BME280;51307;52.162;7.560;2023-02-28T11:06:23;102660.13;;;4.59;34.29
64841;BME280;51307;52.162;7.560;2023-02-28T11:09:22;102655.53;;;4.63;32.98
64841;BME280;51307;52.162;7.560;2023-02-28T11:11:50;102652.97;;;4.61;33.96
64841;BME280;51307;52.162;7.560;2023-02-28T11:14:27;102651.25;;;4.60;34.50
64841;BME280;51307;52.162;7.560;2023-02-28T11:16:59;102655.63;;;4.61;33.48
64841;BME280;51307;52.162;7.560;2023-02-28T11:19:37;102644.78;;;4.66;34.39
64841;BME280;51307;52.162;7.560;2023-02-28T11:22:05;102654.53;;;4.65;33.74
64841;BME280;51307;52.162;7.560;2023-02-28T11:24:35;102653.56;;;4.66;33.67
64841;BME280;51307;52.162;7.560;2023-02-28T11:27:02;102656.09;;;4.69;34.10
64841;BME280;51307;52.162;7.560;2023-02-28T11:29:30;102655.13;;;4.70;33.37
64841;BME280;51307;52.162;7.560;2023-02-28T11:34:38;102640.88;;;4.73;34.14
64841;BME280;51307;52.162;7.560;2023-02-28T11:37:08;102648.81;;;4.73;33.60
64841;BME280;51307;52.162;7.560;2023-02-28T11:39:36;102641.41;;;4.80;33.85
64841;BME280;51307;52.162;7.560;2023-02-28T11:50:31;102638.94;;;4.94;33.57
64841;BME280;51307;52.162;7.560;2023-02-28T11:53:21;102638.31;;;4.89;33.87
64841;BME280;51307;52.162;7.560;2023-02-28T11:56:17;102635.50;;;4.92;33.78
64841;BME280;51307;52.162;7.560;2023-02-28T11:59:31;102633.16;;;5.03;32.56
64841;BME280;51307;52.162;7.560;2023-02-28T12:02:28;102628.88;;;5.01;34.68
64841;BME280;51307;52.162;7.560;2023-02-28T12:05:28;102627.06;;;5.01;34.48
64841;BME280;51307;52.162;7.560;2023-02-28T12:13:46;102613.31;;;5.11;34.44
64841;BME280;51307;52.162;7.560;2023-02-28T12:24:44;102601.06;;;5.08;33.79
64841;BME280;51307;52.162;7.560;2023-02-28T12:27:18;102611.22;;;5.17;34.26
64841;BME280;51307;52.162;7.560;2023-02-28T12:32:43;102584.28;;;5.25;33.80
64841;BME280;51307;52.162;7.560;2023-02-28T12:38:41;102569.91;;;5.29;34.60
64841;BME280;51307;52.162;7.560;2023-02-28T12:44:02;102566.06;;;5.35;33.65
64841;BME280;51307;52.162;7.560;2023-02-28T12:46:51;102563.88;;;5.26;32.93
64841;BME280;51307;52.162;7.560;2023-02-28T12:49:25;102558.59;;;5.42;33.65
64841;BME280;51307;52.162;7.560;2023-02-28T12:51:53;102556.41;;;5.50;33.84
64841;BME280;51307;52.162;7.560;2023-02-28T12:54:21;102547.31;;;5.54;34.46
64841;BME280;51307;52.162;7.560;2023-02-28T12:57:12;102548.00;;;5.57;34.27
64841;BME280;51307;52.162;7.560;2023-02-28T12:59:57;102550.75;;;5.56;33.82
64841;BME280;51307;52.162;7.560;2023-02-28T13:14:01;102537.66;;;5.85;33.10
64841;BME280;51307;52.162;7.560;2023-02-28T13:16:27;102535.00;;;5.85;34.02
64841;BME280;51307;52.162;7.560;2023-02-28T13:19:09;102536.53;;;5.89;34.86
64841;BME280;51307;52.162;7.560;2023-02-28T13:21:43;102533.63;;;5.94;33.81
64841;BME280;51307;52.162;7.560;2023-02-28T13:24:10;102527.97;;;5.84;33.78
64841;BME280;51307;52.162;7.560;2023-02-28T13:29:27;102532.28;;;5.86;33.07
64841;BME280;51307;52.162;7.560;2023-02-28T13:39:53;102539.38;;;5.86;34.23
64841;BME280;51307;52.162;7.560;2023-02-28T13:45:19;102531.22;;;5.89;34.66
64841;BME280;51307;52.162;7.560;2023-02-28T13:48:15;102529.53;;;5.88;34.38
64841;BME280;51307;52.162;7.560;2023-02-28T13:50:43;102538.56;;;6.00;34.82
64841;BME280;51307;52.162;7.560;2023-02-28T13:55:50;102529.31;;;6.07;34.99
64841;BME280;51307;52.162;7.560;2023-02-28T14:06:48;102538.13;;;6.07;34.40
64841;BME280;51307;52.162;7.560;2023-02-28T14:09:23;102528.78;;;6.16;33.62
64841;BME280;51307;52.162;7.560;2023-02-28T14:11:50;102538.41;;;6.19;34.73
64841;BME280;51307;52.162;7.560;2023-02-28T14:17:03;102531.53;;;6.15;33.45
64841;BME280;51307;52.162;7.560;2023-02-28T14:19:31;102523.56;;;6.15;33.54
64841;BME280;51307;52.162;7.560;2023-02-28T14:25:22;102523.28;;;6.19;33.21
64841;BME280;51307;52.162;7.560;2023-02-28T14:28:31;102520.63;;;6.19;33.37
64841;BME280;51307;52.162;7.560;2023-02-28T14:31:15;102516.94;;;6.22;33.53
64841;BME280;51307;52.162;7.560;2023-02-28T14:36:38;102518.28;;;6.29;32.72
64841;BME280;51307;52.162;7.560;2023-02-28T14:39:10;102513.47;;;6.36;33.32
64841;BME280;51307;52.162;7.560;2023-02-28T14:41:41;102511.19;;;6.44;32.85
64841;BME280;51307;52.162;7.560;2023-02-28T14:44:24;102508.59;;;6.58;32.80
64841;BME280;51307;52.162;7.560;2023-02-28T14:46:59;102501.56;;;6.72;33.30
64841;BME280;51307;52.162;7.560;2023-02-28T14:49:30;102504.56;;;6.96;32.44
64841;BME280;51307;52.162;7.560;2023-02-28T14:54:41;102485.66;;;7.15;32.85
64841;BME280;51307;52.162;7.560;2023-02-28T14:57:23;102491.34;;;7.23;32.94
64841;BME280;51307;52.162;7.560;2023-02-28T14:59:58;102484.59;;;7.18;32.50
64841;BME280;51307;52.162;7.560;2023-02-28T15:02:25;102490.03;;;7.31;32.52
64841;BME280;51307;52.162;7.560;2023-02-28T15:07:48;102497.69;;;7.50;32.61
64841;BME280;51307;52.162;7.560;2023-02-28T15:10:25;102490.72;;;7.62;32.30
64841;BME280;51307;52.162;7.560;2023-02-28T15:12:56;102489.78;;;8.03;32.38
64841;BME280;51307;52.162;7.560;2023-02-28T15:18:05;102485.75;;;8.63;31.34
64841;BME280;51307;52.162;7.560;2023-02-28T15:20:34;102484.06;;;9.14;30.11
64841;BME280;51307;52.162;7.560;2023-02-28T15:23:01;102491.84;;;9.78;29.31
64841;BME280;51307;52.162;7.560;2023-02-28T15:25:27;102496.91;;;10.54;28.41
64841;BME280;51307;52.162;7.560;2023-02-28T15:27:55;102492.09;;;11.04;27.53
64841;BME280;51307;52.162;7.560;2023-02-28T15:30:28;102492.28;;;11.58;27.00
64841;BME280;51307;52.162;7.560;2023-02-28T15:35:31;102490.16;;;11.73;26.54
64841;BME280;51307;52.162;7.560;2023-02-28T15:40:53;102488.75;;;11.46;26.40
64841;BME280;51307;52.162;7.560;2023-02-28T15:43:28;102492.31;;;11.35;26.60
64841;BME280;51307;52.162;7.560;2023-02-28T15:46:10;102496.09;;;11.33;26.66
64841;BME280;51307;52.162;7.560;2023-02-28T15:48:54;102493.41;;;11.33;26.94
64841;BME280;51307;52.162;7.560;2023-02-28T15:51:39;102497.09;;;11.32;26.64
64841;BME280;51307;52.162;7.560;2023-02-28T15:54:07;102494.50;;;11.30;27.13